Time;durP1;ratioP1;P1;durP2;ratioP2;P2;SDS_P1;SDS_P2;PMS_P1;PMS_P2;Temp;Humidity;BMP_temperature;BMP_pressure;BME280_temperature;BME280_humidity;BME280_pressure;Samples;Min_cycle;Max_cycle;Signal;HPM_P1;HPM_P2
2023/02/17 00:01:19;;;;;;;42.25;32.83;;;9.40;96.70;;;;;;5031173;28;20423;-70
2023/02/17 00:03:48;;;;;;;42.67;33.20;;;9.40;96.70;;;;;;5038990;28;20437;-70
2023/02/17 00:06:18;;;;;;;41.55;32.17;;;9.40;96.70;;;;;;5034927;28;20036;-70
2023/02/17 00:08:49;;;;;;;42.10;31.60;;;9.40;96.70;;;;;;5018389;28;20041;-70
2023/02/17 00:11:18;;;;;;;43.25;32.83;;;9.40;96.70;;;;;;5037076;28;20044;-71
2023/02/17 00:13:46;;;;;;;42.10;33.03;;;9.40;96.70;;;;;;5013355;28;20395;-71
2023/02/17 00:16:18;;;;;;;44.80;32.28;;;9.30;96.70;;;;;;5033534;28;20049;-70
2023/02/17 00:18:47;;;;;;;42.22;32.17;;;9.30;96.70;;;;;;5035199;28;20128;-70
2023/02/17 00:21:17;;;;;;;44.78;32.92;;;9.20;96.70;;;;;;5037018;28;20064;-70
2023/02/17 00:23:48;;;;;;;42.10;32.67;;;9.20;96.70;;;;;;5036145;28;20041;-70
2023/02/17 00:26:17;;;;;;;39.22;30.40;;;9.20;96.70;;;;;;5032826;28;20757;-71
2023/02/17 00:28:46;;;;;;;39.53;30.23;;;9.20;96.70;;;;;;5049435;28;20128;-71
2023/02/17 00:31:16;;;;;;;43.03;31.55;;;9.20;96.70;;;;;;5036131;28;20051;-71
2023/02/17 00:33:45;;;;;;;37.85;29.15;;;9.20;96.70;;;;;;5026453;28;20529;-71
2023/02/17 00:36:16;;;;;;;34.88;29.15;;;9.20;96.70;;;;;;5036980;28;20098;-73
2023/02/17 00:38:46;;;;;;;37.03;28.77;;;9.20;96.70;;;;;;5031674;28;20084;-73
2023/02/17 00:41:16;;;;;;;35.83;26.75;;;9.20;96.70;;;;;;5036353;28;20057;-73
2023/02/17 00:43:44;;;;;;;34.90;26.77;;;9.20;96.70;;;;;;5039066;28;20762;-73
2023/02/17 00:46:16;;;;;;;35.80;26.92;;;9.20;96.70;;;;;;5036386;28;20052;-73
2023/02/17 00:48:44;;;;;;;32.67;26.63;;;9.20;96.70;;;;;;5017058;28;20048;-74
2023/02/17 00:51:15;;;;;;;33.83;26.15;;;9.20;96.70;;;;;;5017615;28;20040;-73
2023/02/17 00:53:44;;;;;;;35.50;27.48;;;9.20;96.70;;;;;;5034047;28;20047;-73
2023/02/17 00:56:12;;;;;;;37.03;27.70;;;9.30;96.70;;;;;;5020099;28;20090;-70
2023/02/17 00:58:42;;;;;;;33.70;26.50;;;9.20;96.70;;;;;;5018258;28;20045;-70
2023/02/17 01:01:10;;;;;;;34.55;26.80;;;9.20;96.70;;;;;;5035638;28;20079;-70
2023/02/17 01:03:40;;;;;;;34.95;26.75;;;9.30;96.70;;;;;;5034317;28;20041;-71
2023/02/17 01:06:15;;;;;;;33.45;27.75;;;9.20;96.70;;;;;;5033600;28;20072;-70
2023/02/17 01:08:43;;;;;;;35.13;27.92;;;9.20;96.70;;;;;;5034689;28;20219;-71
2023/02/17 01:11:17;;;;;;;36.60;28.23;;;9.30;96.70;;;;;;5036297;28;20045;-70
2023/02/17 01:13:47;;;;;;;34.80;27.88;;;9.20;96.70;;;;;;5025733;28;20119;-70
2023/02/17 01:16:18;;;;;;;34.47;27.88;;;9.30;96.70;;;;;;5036628;28;20099;-70
2023/02/17 01:18:47;;;;;;;38.92;27.23;;;9.20;96.70;;;;;;5035162;28;20057;-71
2023/02/17 01:21:16;;;;;;;33.80;27.02;;;9.20;96.70;;;;;;5034559;28;20064;-71
2023/02/17 01:23:44;;;;;;;33.95;27.80;;;9.10;96.70;;;;;;5036743;28;20045;-70
2023/02/17 01:26:14;;;;;;;36.55;28.08;;;9.10;96.70;;;;;;5020913;28;20037;-71
2023/02/17 01:28:42;;;;;;;38.10;29.15;;;9.00;96.70;;;;;;5039145;28;20835;-70
2023/02/17 01:31:12;;;;;;;39.28;30.33;;;9.00;96.70;;;;;;5035874;28;20057;-70
2023/02/17 01:33:41;;;;;;;39.67;29.48;;;8.90;96.70;;;;;;5040379;28;20548;-71
2023/02/17 01:36:11;;;;;;;38.15;29.05;;;8.90;96.70;;;;;;5041732;28;20044;-71
2023/02/17 01:38:40;;;;;;;39.50;28.60;;;8.90;96.70;;;;;;5038131;28;20049;-70
2023/02/17 01:41:10;;;;;;;37.78;28.30;;;8.80;96.70;;;;;;5043395;28;20696;-70
2023/02/17 01:43:38;;;;;;;38.10;27.95;;;8.80;96.70;;;;;;5040900;28;20528;-71
2023/02/17 01:46:08;;;;;;;33.20;27.35;;;8.90;96.70;;;;;;5035608;28;20045;-70
2023/02/17 01:48:42;;;;;;;38.08;27.65;;;8.90;96.70;;;;;;5024654;28;20106;-70
2023/02/17 01:51:15;;;;;;;38.42;27.55;;;8.90;96.70;;;;;;5032953;28;20048;-70
2023/02/17 01:53:50;;;;;;;34.15;26.00;;;9.00;96.70;;;;;;5041260;28;20440;-70
2023/02/17 01:56:19;;;;;;;32.05;24.92;;;9.00;96.70;;;;;;5040812;28;20058;-70
2023/02/17 01:58:54;;;;;;;32.63;26.00;;;9.00;96.70;;;;;;5035177;28;20140;-71
2023/02/17 02:01:22;;;;;;;33.60;25.75;;;9.00;96.70;;;;;;5040227;28;20060;-71
2023/02/17 02:03:53;;;;;;;34.65;29.25;;;9.00;96.70;;;;;;5035261;28;20044;-70
2023/02/17 02:06:27;;;;;;;30.83;26.92;;;9.00;96.70;;;;;;5037372;28;20053;-70
2023/02/17 02:09:00;;;;;;;32.95;25.85;;;9.00;96.70;;;;;;5039409;28;20549;-70
2023/02/17 02:11:29;;;;;;;31.45;26.33;;;9.00;96.70;;;;;;5039194;28;20095;-71
2023/02/17 02:13:58;;;;;;;30.42;25.52;;;8.90;96.70;;;;;;5024437;28;20036;-71
2023/02/17 02:16:30;;;;;;;33.70;26.75;;;8.90;96.70;;;;;;5038954;28;20051;-70
2023/02/17 02:19:14;;;;;;;33.35;26.40;;;9.00;96.70;;;;;;5036580;28;20040;-70
2023/02/17 02:22:17;;;;;;;32.08;25.25;;;9.00;96.70;;;;;;5033861;28;20143;-70
2023/02/17 02:24:55;;;;;;;33.58;25.30;;;9.00;96.70;;;;;;5041029;28;20358;-70
2023/02/17 02:27:45;;;;;;;31.73;24.83;;;9.00;96.70;;;;;;5036741;28;20041;-70
2023/02/17 02:30:52;;;;;;;33.92;24.27;;;9.00;96.70;;;;;;5042729;28;20582;-73
2023/02/17 02:33:28;;;;;;;32.15;25.90;;;9.00;96.70;;;;;;5039182;28;20048;-73
2023/02/17 02:35:59;;;;;;;35.50;26.08;;;9.00;96.70;;;;;;5038046;28;20091;-73
2023/02/17 02:38:34;;;;;;;29.75;24.20;;;9.00;96.70;;;;;;5039027;28;20637;-73
2023/02/17 02:41:07;;;;;;;31.25;24.23;;;8.90;96.70;;;;;;5037395;28;20045;-72
2023/02/17 02:43:36;;;;;;;32.22;25.23;;;8.90;96.70;;;;;;5020041;28;20407;-72
2023/02/17 02:46:04;;;;;;;32.08;24.52;;;8.90;96.70;;;;;;5039618;28;20053;-72
2023/02/17 02:48:35;;;;;;;33.05;24.98;;;8.90;96.70;;;;;;5041189;28;20144;-73
2023/02/17 02:51:20;;;;;;;32.35;24.55;;;8.80;96.70;;;;;;5041092;28;20048;-73
2023/02/17 02:54:14;;;;;;;30.98;24.10;;;8.80;96.70;;;;;;5023026;28;20049;-73
2023/02/17 02:56:58;;;;;;;32.03;22.52;;;8.80;96.70;;;;;;5033721;28;20725;-73
2023/02/17 02:59:35;;;;;;;28.13;22.80;;;8.80;96.70;;;;;;5035224;28;20045;-72
2023/02/17 03:02:11;;;;;;;31.38;23.63;;;8.70;96.70;;;;;;5032451;28;20108;-73
2023/02/17 03:04:49;;;;;;;28.77;22.67;;;8.70;96.70;;;;;;5036788;28;20045;-72
2023/02/17 03:07:23;;;;;;;30.00;22.80;;;8.70;96.70;;;;;;5039676;28;20037;-73
2023/02/17 03:09:53;;;;;;;28.00;21.33;;;8.70;96.70;;;;;;5034431;28;20110;-73
2023/02/17 03:12:22;;;;;;;28.17;22.63;;;8.80;96.70;;;;;;5033440;28;20048;-73
2023/02/17 03:14:56;;;;;;;27.88;23.05;;;8.80;96.70;;;;;;5038359;28;20049;-72
2023/02/17 03:17:24;;;;;;;27.95;22.50;;;8.80;96.70;;;;;;5037005;28;20143;-73
2023/02/17 03:19:53;;;;;;;30.45;23.58;;;8.80;96.70;;;;;;5036518;28;20048;-73
2023/02/17 03:22:24;;;;;;;29.08;22.98;;;8.70;96.70;;;;;;5034284;28;20037;-73
2023/02/17 03:24:52;;;;;;;27.55;22.88;;;8.70;96.70;;;;;;5035204;28;20055;-73
2023/02/17 03:27:20;;;;;;;29.05;22.90;;;8.60;96.70;;;;;;5040867;28;20041;-73
2023/02/17 03:29:48;;;;;;;27.15;22.50;;;8.60;96.70;;;;;;5039147;28;20572;-72
2023/02/17 03:32:18;;;;;;;28.95;23.42;;;8.60;96.70;;;;;;5039849;28;20056;-73
2023/02/17 03:34:46;;;;;;;28.48;23.15;;;8.60;96.70;;;;;;5034630;28;20561;-73
2023/02/17 03:37:16;;;;;;;27.25;22.50;;;8.70;96.70;;;;;;5037304;28;20051;-73
2023/02/17 03:39:44;;;;;;;29.98;22.90;;;8.70;96.70;;;;;;5033550;28;20094;-73
2023/02/17 03:42:12;;;;;;;28.40;22.08;;;8.70;96.70;;;;;;5036600;28;20041;-73
2023/02/17 03:44:40;;;;;;;26.95;22.23;;;8.60;96.70;;;;;;5036644;28;20056;-73
2023/02/17 03:47:08;;;;;;;30.23;21.90;;;8.60;96.70;;;;;;5020626;28;20171;-72
2023/02/17 03:49:36;;;;;;;26.90;21.33;;;8.60;96.70;;;;;;5036962;28;20496;-73
2023/02/17 03:52:04;;;;;;;29.45;22.10;;;8.70;96.70;;;;;;5036600;28;20578;-73
2023/02/17 03:54:33;;;;;;;27.50;21.88;;;8.70;96.70;;;;;;5036264;28;20475;-72
2023/02/17 03:57:01;;;;;;;26.98;22.48;;;8.70;96.70;;;;;;5031233;28;20045;-73
2023/02/17 03:59:30;;;;;;;28.70;22.98;;;8.70;96.70;;;;;;5036306;28;20041;-73
2023/02/17 04:01:57;;;;;;;28.27;22.55;;;8.70;96.70;;;;;;5048623;28;20044;-72
2023/02/17 04:04:25;;;;;;;30.30;22.35;;;8.70;96.70;;;;;;5021129;28;20522;-74
2023/02/17 04:06:53;;;;;;;25.88;20.90;;;8.70;96.70;;;;;;5042365;28;20096;-72
2023/02/17 04:09:21;;;;;;;28.85;22.60;;;8.70;96.70;;;;;;5055878;28;20116;-73
2023/02/17 04:11:50;;;;;;;28.70;23.70;;;8.80;96.70;;;;;;5041416;28;20115;-73
2023/02/17 04:14:18;;;;;;;25.80;21.65;;;8.70;96.70;;;;;;5037656;28;20751;-72
2023/02/17 04:16:46;;;;;;;39.38;28.38;;;8.80;96.70;;;;;;5039510;28;20045;-74
2023/02/17 04:19:14;;;;;;;41.13;29.55;;;8.80;96.70;;;;;;5059778;28;20046;-72
2023/02/17 04:21:42;;;;;;;28.67;22.98;;;8.90;96.70;;;;;;5035246;28;20095;-73
2023/02/17 04:24:10;;;;;;;29.55;23.58;;;8.90;96.70;;;;;;5055520;28;20037;-72
2023/02/17 04:26:38;;;;;;;27.45;21.50;;;8.80;96.70;;;;;;5059453;28;20040;-73
2023/02/17 04:29:07;;;;;;;27.10;19.45;;;8.80;96.70;;;;;;5061500;28;20097;-72
2023/02/17 04:31:35;;;;;;;25.25;20.17;;;8.90;96.70;;;;;;5029940;28;20575;-72
2023/02/17 04:34:03;;;;;;;25.92;19.35;;;8.90;96.70;;;;;;5033961;28;20673;-73
2023/02/17 04:36:31;;;;;;;22.80;18.15;;;8.90;96.70;;;;;;5024888;28;20450;-73
2023/02/17 04:38:59;;;;;;;23.35;18.15;;;8.90;96.70;;;;;;5024823;28;20041;-73
2023/02/17 04:41:27;;;;;;;22.48;17.98;;;8.90;96.70;;;;;;5024847;28;20583;-74
2023/02/17 04:43:54;;;;;;;22.30;17.88;;;8.90;96.70;;;;;;5051091;28;20045;-73
2023/02/17 04:46:24;;;;;;;23.77;17.88;;;8.90;96.70;;;;;;5042460;28;20048;-73
2023/02/17 04:48:52;;;;;;;22.05;18.30;;;8.90;96.70;;;;;;5016987;28;20055;-72
2023/02/17 04:51:20;;;;;;;23.75;18.48;;;8.90;96.70;;;;;;5054116;28;20055;-73
2023/02/17 04:53:50;;;;;;;21.52;18.40;;;8.90;96.70;;;;;;5044754;28;20072;-71
2023/02/17 04:56:19;;;;;;;23.70;18.77;;;8.90;96.70;;;;;;5060679;28;20045;-74
2023/02/17 04:58:47;;;;;;;25.13;19.10;;;8.90;96.70;;;;;;5041456;28;20047;-74
2023/02/17 05:01:15;;;;;;;23.33;18.70;;;8.90;96.70;;;;;;5019545;28;20058;-74
2023/02/17 05:03:44;;;;;;;25.92;19.30;;;8.90;96.70;;;;;;5038303;28;20044;-72
2023/02/17 05:06:12;;;;;;;24.25;19.25;;;8.80;96.70;;;;;;5035182;28;20045;-71
2023/02/17 05:08:40;;;;;;;23.48;19.40;;;8.80;96.70;;;;;;5045684;28;20061;-71
2023/02/17 05:11:08;;;;;;;24.67;18.70;;;8.70;96.70;;;;;;5032138;28;20052;-71
2023/02/17 05:13:36;;;;;;;22.23;18.27;;;8.70;96.70;;;;;;5035397;28;20438;-71
2023/02/17 05:16:04;;;;;;;22.88;18.10;;;8.70;96.70;;;;;;5034657;28;20141;-71
2023/02/17 05:18:33;;;;;;;22.58;18.80;;;8.80;96.70;;;;;;5036013;28;20053;-75
2023/02/17 05:21:02;;;;;;;21.70;18.23;;;8.80;96.70;;;;;;5031350;28;20049;-71
2023/02/17 05:23:30;;;;;;;23.80;17.90;;;8.80;96.70;;;;;;5021909;28;20056;-71
2023/02/17 05:25:58;;;;;;;22.58;18.30;;;8.80;96.70;;;;;;5025598;28;20234;-74
2023/02/17 05:28:26;;;;;;;22.35;17.27;;;8.80;96.70;;;;;;5033339;28;20136;-74
2023/02/17 05:30:54;;;;;;;23.20;17.60;;;8.80;96.70;;;;;;5035073;28;20507;-71
2023/02/17 05:33:22;;;;;;;19.05;16.80;;;8.80;96.70;;;;;;5040758;28;20049;-71
2023/02/17 05:35:51;;;;;;;20.25;16.15;;;8.80;96.70;;;;;;5041494;28;20075;-73
2023/02/17 05:38:21;;;;;;;22.00;17.17;;;8.80;96.70;;;;;;5035537;28;20069;-73
2023/02/17 05:40:49;;;;;;;19.85;17.38;;;8.80;96.70;;;;;;5045358;28;20411;-73
2023/02/17 05:43:17;;;;;;;22.13;16.83;;;8.80;96.70;;;;;;5043662;28;20033;-74
2023/02/17 05:45:45;;;;;;;20.10;16.20;;;8.80;96.70;;;;;;5038741;28;20029;-74
2023/02/17 05:48:13;;;;;;;18.58;15.07;;;8.80;96.70;;;;;;5039552;28;20049;-74
2023/02/17 05:50:41;;;;;;;17.20;14.68;;;8.80;96.70;;;;;;5037330;28;20040;-73
2023/02/17 05:53:09;;;;;;;18.00;15.30;;;8.80;96.70;;;;;;5032868;28;20053;-74
2023/02/17 05:55:38;;;;;;;28.52;16.38;;;8.80;96.70;;;;;;5036915;28;20057;-71
2023/02/17 05:58:06;;;;;;;19.08;15.73;;;8.80;96.70;;;;;;5034913;28;20096;-71
2023/02/17 06:00:34;;;;;;;17.45;15.25;;;8.80;96.70;;;;;;5034666;28;20067;-71
2023/02/17 06:03:02;;;;;;;19.98;15.80;;;8.80;96.70;;;;;;5028097;28;20083;-71
2023/02/17 06:05:30;;;;;;;20.10;15.82;;;8.80;96.70;;;;;;5034000;28;20119;-71
2023/02/17 06:07:58;;;;;;;18.60;14.40;;;8.80;96.70;;;;;;5036181;28;20059;-71
2023/02/17 06:10:26;;;;;;;20.42;15.27;;;8.80;96.70;;;;;;5039051;28;20053;-71
2023/02/17 06:12:55;;;;;;;18.08;14.70;;;8.80;96.70;;;;;;5038722;28;20048;-71
2023/02/17 06:15:23;;;;;;;22.00;15.32;;;8.70;96.70;;;;;;5038693;28;20045;-73
2023/02/17 06:17:51;;;;;;;19.48;15.15;;;8.70;96.70;;;;;;5043244;28;20045;-73
2023/02/17 06:20:18;;;;;;;18.38;14.30;;;8.80;96.70;;;;;;5035378;28;20363;-73
2023/02/17 06:22:46;;;;;;;18.33;14.65;;;8.70;96.70;;;;;;5044240;28;20509;-74
2023/02/17 06:25:14;;;;;;;24.85;14.65;;;8.60;96.70;;;;;;5036541;28;20037;-73
2023/02/17 06:27:43;;;;;;;20.73;14.88;;;8.60;96.70;;;;;;5035650;28;20054;-73
2023/02/17 06:30:13;;;;;;;17.17;14.77;;;8.70;96.70;;;;;;5039445;28;20041;-70
2023/02/17 06:32:41;;;;;;;21.33;16.05;;;8.70;96.70;;;;;;5028437;28;20049;-70
2023/02/17 06:35:09;;;;;;;21.52;15.25;;;8.70;96.70;;;;;;5024151;28;20045;-70
2023/02/17 06:37:37;;;;;;;20.08;15.02;;;8.60;96.70;;;;;;5023522;28;20091;-70
2023/02/17 06:40:05;;;;;;;22.15;15.77;;;8.60;96.70;;;;;;5018208;28;20041;-70
2023/02/17 06:42:33;;;;;;;19.90;14.50;;;8.60;96.70;;;;;;5022983;28;20045;-71
2023/02/17 06:45:04;;;;;;;19.80;15.00;;;8.50;96.70;;;;;;5028916;28;20048;-70
2023/02/17 06:47:34;;;;;;;17.33;14.27;;;8.50;96.70;;;;;;5031992;28;20709;-70
2023/02/17 06:50:02;;;;;;;18.70;13.88;;;8.50;96.70;;;;;;5031102;28;20055;-71
2023/02/17 06:52:30;;;;;;;17.48;13.85;;;8.50;96.70;;;;;;5037618;28;20403;-70
2023/02/17 06:54:57;;;;;;;19.73;15.27;;;8.50;96.70;;;;;;5038774;28;20071;-69
2023/02/17 06:57:25;;;;;;;19.35;15.32;;;8.50;96.70;;;;;;5034927;28;20582;-70
2023/02/17 06:59:53;;;;;;;18.98;15.23;;;8.50;96.70;;;;;;5034661;28;20060;-69
2023/02/17 07:02:21;;;;;;;22.65;16.70;;;8.50;96.70;;;;;;5044908;28;20048;-70
2023/02/17 07:04:50;;;;;;;18.98;15.35;;;8.50;96.70;;;;;;5036046;28;20052;-69
2023/02/17 07:07:18;;;;;;;18.70;13.95;;;8.50;96.70;;;;;;5049195;28;20048;-70
2023/02/17 07:09:46;;;;;;;18.80;14.88;;;8.50;96.70;;;;;;5047761;28;20501;-72
2023/02/17 07:12:14;;;;;;;23.13;17.48;;;8.50;96.70;;;;;;5044353;28;20530;-72
2023/02/17 07:14:42;;;;;;;19.92;14.77;;;8.60;96.70;;;;;;5013287;28;20098;-72
2023/02/17 07:17:09;;;;;;;21.10;15.40;;;8.60;96.70;;;;;;5052713;28;20458;-72
2023/02/17 07:19:37;;;;;;;21.65;15.35;;;8.60;96.70;;;;;;5043905;28;20068;-72
2023/02/17 07:22:06;;;;;;;21.92;16.10;;;8.70;96.70;;;;;;5028205;28;20045;-72
2023/02/17 07:24:34;;;;;;;21.27;15.65;;;8.80;96.70;;;;;;5027770;28;20053;-71
2023/02/17 07:27:04;;;;;;;19.05;14.80;;;8.80;96.70;;;;;;5045655;28;20044;-72
2023/02/17 07:29:31;;;;;;;20.17;14.85;;;8.90;96.70;;;;;;5027984;28;20041;-72
2023/02/17 07:31:59;;;;;;;19.65;15.25;;;8.90;96.70;;;;;;5059634;28;20041;-72
2023/02/17 07:34:27;;;;;;;23.42;16.92;;;8.90;96.70;;;;;;5052734;28;20041;-72
2023/02/17 07:36:55;;;;;;;21.08;16.08;;;9.00;96.70;;;;;;5032331;28;20487;-72
2023/02/17 07:39:25;;;;;;;21.13;17.02;;;9.00;96.70;;;;;;5026119;28;20041;-72
2023/02/17 07:41:52;;;;;;;21.70;17.60;;;9.00;96.70;;;;;;5017648;28;20036;-71
2023/02/17 07:44:20;;;;;;;21.38;16.00;;;9.10;96.70;;;;;;5035463;28;20094;-72
2023/02/17 07:46:48;;;;;;;29.85;20.73;;;9.10;96.70;;;;;;5033819;28;20053;-73
2023/02/17 07:49:16;;;;;;;34.63;22.05;;;9.20;96.70;;;;;;5049419;28;20111;-73
2023/02/17 07:51:44;;;;;;;29.13;21.10;;;9.20;96.70;;;;;;5035550;28;20037;-72
2023/02/17 07:54:12;;;;;;;38.78;26.67;;;9.20;96.70;;;;;;5015615;28;20055;-72
2023/02/17 07:56:42;;;;;;;32.75;23.33;;;9.20;96.70;;;;;;5011150;28;20041;-73
2023/02/17 07:59:11;;;;;;;34.53;24.40;;;9.20;96.70;;;;;;5032304;28;20498;-73
2023/02/17 08:01:39;;;;;;;32.00;24.92;;;9.30;96.70;;;;;;5055025;28;20048;-73
2023/02/17 08:04:07;;;;;;;31.13;23.02;;;9.30;96.70;;;;;;5043234;28;20048;-73
2023/02/17 08:06:37;;;;;;;26.88;20.90;;;9.30;96.70;;;;;;5012838;28;20036;-73
2023/02/17 08:14:51;;;;;;;26.40;19.70;;;9.50;96.70;;;;;;5029386;28;20041;-74
2023/02/17 08:17:19;;;;;;;26.92;20.92;;;9.50;96.70;;;;;;5042968;28;20127;-73
2023/02/17 08:19:47;;;;;;;25.92;19.65;;;9.50;96.70;;;;;;5028965;28;20045;-73
2023/02/17 08:22:16;;;;;;;23.73;19.55;;;9.50;96.70;;;;;;5029725;28;20036;-73
2023/02/17 08:24:44;;;;;;;27.55;19.15;;;9.50;96.70;;;;;;5060488;28;20044;-73
2023/02/17 08:27:14;;;;;;;28.67;20.77;;;9.60;96.70;;;;;;5049751;28;20558;-73
2023/02/17 08:29:42;;;;;;;35.78;24.48;;;9.60;96.70;;;;;;5024429;28;20118;-73
2023/02/17 08:32:10;;;;;;;38.63;29.40;;;9.60;96.70;;;;;;5054267;28;20708;-73
2023/02/17 08:34:38;;;;;;;43.42;31.15;;;9.60;96.70;;;;;;5048813;28;20045;-73
2023/02/17 08:37:07;;;;;;;40.75;29.15;;;9.70;96.70;;;;;;5020101;28;20128;-73
2023/02/17 08:39:35;;;;;;;34.65;26.00;;;9.60;96.70;;;;;;5060212;28;20075;-73
2023/02/17 08:42:04;;;;;;;35.75;25.30;;;9.60;96.70;;;;;;5048888;28;20041;-73
2023/02/17 08:44:35;;;;;;;30.75;23.33;;;9.70;96.70;;;;;;5045263;28;20127;-74
2023/02/17 08:47:04;;;;;;;35.08;24.48;;;9.70;96.70;;;;;;5036461;28;20040;-74
2023/02/17 08:49:32;;;;;;;36.25;26.95;;;9.70;96.70;;;;;;5052263;28;20052;-74
2023/02/17 08:52:00;;;;;;;39.10;27.20;;;9.70;96.70;;;;;;5038438;28;20055;-76
2023/02/17 08:54:27;;;;;;;39.58;30.27;;;9.80;96.70;;;;;;5034175;28;20041;-74
2023/02/17 08:56:57;;;;;;;42.22;30.98;;;9.80;96.70;;;;;;5026877;28;20499;-74
2023/02/17 08:59:25;;;;;;;39.63;31.17;;;9.90;96.70;;;;;;5025541;28;20503;-75
2023/02/17 09:01:54;;;;;;;42.03;31.15;;;9.90;96.70;;;;;;5037284;28;20132;-74
2023/02/17 09:04:22;;;;;;;37.33;28.00;;;9.90;96.70;;;;;;5050165;28;20056;-74
2023/02/17 09:06:52;;;;;;;33.42;24.95;;;9.90;96.70;;;;;;5033663;28;20048;-75
2023/02/17 09:09:21;;;;;;;33.13;23.95;;;9.90;96.70;;;;;;5033193;28;20048;-74
2023/02/17 09:11:49;;;;;;;34.10;25.20;;;9.90;96.70;;;;;;5056657;28;20046;-74
2023/02/17 09:14:17;;;;;;;38.10;27.20;;;9.90;96.70;;;;;;5060773;28;20064;-73
2023/02/17 09:16:45;;;;;;;41.55;30.02;;;10.00;96.70;;;;;;5031412;28;20198;-74
2023/02/17 09:19:14;;;;;;;45.78;31.70;;;10.00;96.70;;;;;;5030702;28;20044;-74
2023/02/17 09:21:42;;;;;;;46.35;31.70;;;10.00;96.70;;;;;;5058933;28;20131;-74
2023/02/17 09:24:11;;;;;;;45.42;30.00;;;10.00;96.70;;;;;;5041252;28;20457;-74
2023/02/17 09:26:38;;;;;;;44.47;29.80;;;10.00;96.70;;;;;;5031558;28;20383;-74
2023/02/17 09:29:08;;;;;;;40.80;28.33;;;10.00;96.70;;;;;;5031218;28;20049;-76
2023/02/17 09:31:35;;;;;;;37.70;26.15;;;10.00;96.70;;;;;;5051037;28;20095;-74
2023/02/17 09:34:06;;;;;;;35.38;24.45;;;10.00;96.70;;;;;;5025347;28;20067;-76
2023/02/17 09:36:39;;;;;;;39.15;25.38;;;10.00;96.70;;;;;;5049962;28;20045;-74
2023/02/17 09:39:08;;;;;;;34.33;24.08;;;10.00;96.70;;;;;;5029179;28;20060;-74
2023/02/17 09:41:42;;;;;;;34.30;24.25;;;9.90;96.70;;;;;;5051357;28;20051;-74
2023/02/17 09:44:19;;;;;;;31.40;21.02;;;9.90;96.70;;;;;;5043068;28;20069;-74
2023/02/17 09:46:56;;;;;;;28.60;20.23;;;9.90;96.70;;;;;;5028372;28;20043;-72
2023/02/17 09:49:36;;;;;;;28.25;18.83;;;9.90;96.70;;;;;;5038588;28;20675;-72
2023/02/17 09:52:12;;;;;;;26.63;18.50;;;9.90;96.70;;;;;;5045241;28;20533;-72
2023/02/17 09:54:48;;;;;;;26.00;20.07;;;9.90;96.70;;;;;;5055567;28;20641;-72
2023/02/17 09:57:19;;;;;;;25.75;18.88;;;9.90;96.70;;;;;;5041004;28;20176;-72
2023/02/17 09:59:53;;;;;;;25.05;18.35;;;9.90;96.70;;;;;;5063133;28;20114;-72
2023/02/17 10:02:28;;;;;;;23.23;18.48;;;9.90;96.70;;;;;;5049990;28;20053;-75
2023/02/17 10:05:01;;;;;;;30.13;20.02;;;10.00;96.70;;;;;;5046273;28;20048;-72
2023/02/17 10:07:35;;;;;;;30.60;20.48;;;9.90;96.70;;;;;;5057810;28;20049;-72
2023/02/17 10:10:07;;;;;;;25.35;19.67;;;10.00;96.70;;;;;;5038396;28;20076;-72
2023/02/17 10:12:40;;;;;;;28.52;19.83;;;10.10;96.70;;;;;;5035477;28;20053;-72
2023/02/17 10:15:16;;;;;;;24.65;19.83;;;10.10;96.70;;;;;;5049503;28;20659;-72
2023/02/17 10:17:47;;;;;;;;;;;10.20;96.70;;;;;;5053685;28;20040;-72
2023/02/17 10:20:19;;;;;;;25.95;19.65;;;10.30;96.70;;;;;;5046979;28;19925;-72
2023/02/17 10:22:55;;;;;;;27.75;20.52;;;10.30;96.70;;;;;;5062989;28;20067;-71
2023/02/17 10:25:34;;;;;;;28.02;21.25;;;10.30;96.70;;;;;;5053195;28;20548;-73
2023/02/17 10:28:08;;;;;;;27.15;21.00;;;10.40;96.70;;;;;;5048141;28;20079;-72
2023/02/17 10:30:46;;;;;;;29.00;22.75;;;10.40;96.70;;;;;;5044080;28;20098;-72
2023/02/17 10:33:22;;;;;;;29.27;23.20;;;10.50;96.70;;;;;;5036818;28;20048;-73
2023/02/17 10:35:52;;;;;;;29.27;23.60;;;10.60;96.70;;;;;;5053459;28;20570;-73
2023/02/17 10:38:37;;;;;;;28.52;23.00;;;10.70;96.70;;;;;;5036804;28;20045;-72
2023/02/17 10:41:11;;;;;;;29.17;23.05;;;10.80;96.70;;;;;;5044236;28;20445;-72
2023/02/17 10:43:41;;;;;;;32.75;24.52;;;10.90;96.70;;;;;;5026944;28;20045;-72
2023/02/17 10:46:13;;;;;;;30.88;24.77;;;11.00;96.70;;;;;;5041253;28;20052;-72
2023/02/17 10:48:45;;;;;;;29.52;23.95;;;11.00;96.70;;;;;;5057751;28;20383;-72
2023/02/17 10:51:16;;;;;;;30.30;23.33;;;11.10;96.70;;;;;;5047371;28;20048;-72
2023/02/17 10:53:50;;;;;;;34.38;24.08;;;11.20;96.70;;;;;;5046974;28;20049;-72
2023/02/17 10:56:23;;;;;;;33.65;25.50;;;11.30;96.70;;;;;;5046192;28;20044;-72
2023/02/17 10:58:57;;;;;;;36.17;27.85;;;11.40;96.70;;;;;;5045462;28;20047;-72
2023/02/17 11:01:27;;;;;;;40.25;28.30;;;11.40;96.70;;;;;;5057040;28;20045;-72
2023/02/17 11:04:06;;;;;;;36.55;26.52;;;11.50;96.70;;;;;;5046856;28;20403;-72
2023/02/17 11:06:40;;;;;;;33.97;25.48;;;11.60;96.70;;;;;;5046597;28;20041;-72
2023/02/17 11:09:20;;;;;;;31.45;24.02;;;11.70;96.70;;;;;;5046353;28;20045;-72
2023/02/17 11:11:58;;;;;;;32.75;23.63;;;11.80;96.70;;;;;;5047548;28;20076;-72
2023/02/17 11:14:28;;;;;;;37.03;26.08;;;11.90;96.70;;;;;;5027169;28;20083;-73
2023/02/17 11:16:59;;;;;;;29.02;23.63;;;11.90;96.70;;;;;;5034506;28;20048;-72
2023/02/17 11:19:32;;;;;;;34.05;23.52;;;12.10;96.70;;;;;;5045697;28;20058;-73
2023/02/17 11:22:03;;;;;;;28.90;21.75;;;12.10;96.70;;;;;;5051918;28;20465;-73
2023/02/17 11:24:34;;;;;;;29.70;22.45;;;12.20;96.70;;;;;;5026058;28;20095;-73
2023/02/17 11:27:04;;;;;;;30.20;24.17;;;12.30;96.70;;;;;;5044008;28;20566;-72
2023/02/17 11:29:33;;;;;;;31.13;23.73;;;12.40;96.70;;;;;;5044947;28;20087;-73
2023/02/17 11:32:05;;;;;;;30.75;23.17;;;12.50;96.70;;;;;;5052703;28;20642;-72
2023/02/17 11:34:35;;;;;;;32.42;23.73;;;12.60;96.70;;;;;;5026922;28;20057;-72
2023/02/17 11:37:19;;;;;;;30.08;22.70;;;12.70;96.70;;;;;;5031282;28;20058;-72
2023/02/17 11:39:52;;;;;;;29.98;23.45;;;12.70;96.70;;;;;;5033924;28;20592;-72
2023/02/17 11:42:22;;;;;;;30.40;22.40;;;12.90;96.70;;;;;;5035881;28;20113;-72
2023/02/17 11:44:50;;;;;;;29.02;23.02;;;13.00;96.70;;;;;;5062975;28;20052;-72
2023/02/17 11:47:31;;;;;;;26.88;20.65;;;13.10;96.70;;;;;;5058364;28;20056;-72
2023/02/17 11:50:20;;;;;;;28.67;20.52;;;13.10;96.70;;;;;;5034768;28;20163;-72
2023/02/17 11:53:21;;;;;;;26.75;21.25;;;13.00;96.70;;;;;;5056231;28;20518;-72
2023/02/17 11:56:05;;;;;;;26.77;21.38;;;13.00;96.70;;;;;;5053659;28;20075;-72
2023/02/17 11:58:47;;;;;;;27.95;20.80;;;13.00;96.70;;;;;;5048349;28;20098;-73
2023/02/17 12:01:28;;;;;;;25.50;20.50;;;13.00;96.70;;;;;;5027426;28;20061;-73
2023/02/17 12:04:24;;;;;;;29.95;21.77;;;13.10;96.70;;;;;;5050443;28;20053;-72
2023/02/17 12:07:18;;;;;;;29.17;23.02;;;13.10;96.70;;;;;;5043222;28;20049;-73
2023/02/17 12:09:56;;;;;;;30.00;21.10;;;13.30;96.70;;;;;;5054481;28;20040;-72
2023/02/17 12:12:44;;;;;;;24.77;21.27;;;13.30;96.70;;;;;;5041556;28;20074;-73
2023/02/17 12:15:26;;;;;;;26.38;21.92;;;13.30;96.70;;;;;;5050273;28;20143;-72
2023/02/17 12:18:06;;;;;;;32.20;22.63;;;13.40;96.70;;;;;;5048759;28;20045;-73
2023/02/17 12:20:44;;;;;;;29.58;22.98;;;13.40;96.70;;;;;;5024718;28;20051;-72
2023/02/17 12:23:36;;;;;;;26.13;21.45;;;13.50;96.70;;;;;;5051216;28;20118;-72
2023/02/17 12:26:14;;;;;;;23.80;20.35;;;13.60;96.70;;;;;;5012289;28;20102;-72
2023/02/17 12:29:18;;;;;;;28.90;20.55;;;13.70;96.70;;;;;;5045743;28;20041;-73
2023/02/17 12:32:07;;;;;;;29.45;22.15;;;13.80;96.70;;;;;;5049776;28;20173;-73
2023/02/17 12:34:58;;;;;;;25.35;21.23;;;14.10;96.70;;;;;;5047154;28;20055;-72
2023/02/17 12:37:30;;;;;;;25.98;19.55;;;14.50;96.70;;;;;;5008515;28;20048;-72
2023/02/17 12:40:03;;;;;;;18.95;15.57;;;14.70;96.70;;;;;;5043091;28;20048;-73
2023/02/17 12:42:37;;;;;;;14.88;11.55;;;14.60;96.70;;;;;;5051309;28;20554;-73
2023/02/17 12:45:17;;;;;;;13.90;12.18;;;14.40;96.70;;;;;;5029434;28;20052;-73
2023/02/17 12:47:53;;;;;;;9.85;8.85;;;14.40;96.70;;;;;;5053331;28;20040;-72
2023/02/17 12:50:26;;;;;;;9.47;8.40;;;14.40;96.70;;;;;;5033532;28;20053;-73
2023/02/17 12:52:59;;;;;;;11.68;8.75;;;14.40;96.70;;;;;;5024320;28;20360;-72
2023/02/17 12:55:35;;;;;;;8.88;7.82;;;14.30;96.70;;;;;;5042472;28;20120;-72
2023/02/17 12:58:10;;;;;;;9.40;7.97;;;14.30;96.70;;;;;;5042590;28;20037;-72
2023/02/17 13:00:46;;;;;;;10.50;8.37;;;14.30;96.70;;;;;;5032324;28;20053;-73
2023/02/17 13:03:15;;;;;;;10.07;7.25;;;14.30;96.70;;;;;;5030195;28;20061;-72